Latest Weather Observations for Bunbury

IDW60801

Issued at 8:03 am WST Sunday 17 February 2019 (issued every 10 minutes, with the page automatically refreshed every 10 minutes)

About weather observations | Map of weather stations | Latest weather observations for WA | Other Formats
Station Details ID: 009965 Name: BUNBURY Lat: -33.36 Lon: 115.64 Height: 5.2 m
Data from the previous 72 hours. | See also: Recent months at Bunbury
Date/Time
WST
Temp
°C
App
Temp
°C
Dew
Point
°C
Rel
Hum
%
Delta-T
°C
Wind Press
QNH
hPa
Press
MSL
hPa
Rain since
9am
mm
Dir  Spd
km/h
Gust
km/h
Spd
kts
Gust
kts
17/08:00am 17.0 12.5 8.4 57 4.4 ESE 22 30 12 16 1020.5 1020.4 0.0
17/07:30am 16.2 12.7 8.7 61 3.8 ESE 17 26 9 14 1020.5 1020.4 0.0
17/07:00am 15.1 11.6 8.6 65 3.3 SE 17 24 9 13 1020.3 1020.2 0.0
17/06:30am 14.2 11.0 8.6 69 2.8 SE 15 20 8 11 1020.3 1020.2 0.0
17/06:00am 13.4 10.6 8.7 73 2.4 SE 13 19 7 10 1020.1 1020.0 0.0
17/05:30am 13.8 11.1 8.8 72 2.5 SE 13 20 7 11 1019.8 1019.7 0.0
17/05:00am 14.0 10.8 8.6 70 2.7 SE 15 24 8 13 1019.7 1019.6 0.0
17/04:30am 14.3 11.2 8.7 69 2.8 SE 15 24 8 13 1019.5 1019.4 0.0
17/04:00am 14.5 11.0 8.9 69 2.8 SE 17 26 9 14 1019.5 1019.4 0.0
17/03:30am 14.7 11.6 8.9 68 2.9 SE 15 24 8 13 1019.5 1019.4 0.0
17/03:00am 15.2 11.5 9.3 68 3.0 SE 19 28 10 15 1019.2 1019.1 0.0
17/02:30am 15.3 11.9 9.2 67 3.1 ESE 17 26 9 14 1019.1 1019.0 0.0
17/02:00am 15.8 12.2 9.7 67 3.2 SE 19 28 10 15 1019.1 1019.0 0.0
17/01:30am 16.1 13.4 10.4 69 3.0 SE 15 20 8 11 1019.2 1019.1 0.0
17/01:00am 16.7 13.4 11.0 69 3.0 SE 19 28 10 15 1019.3 1019.2 0.0
17/12:30am 17.0 14.2 11.3 69 3.1 SE 17 24 9 13 1019.6 1019.5 0.0
17/12:00am 17.0 15.0 11.5 70 3.0 SE 13 20 7 11 1019.7 1019.6 0.0
 
Date/Time
WST
Temp
°C
App
Temp
°C
Dew
Point
°C
Rel
Hum
%
Delta-T
°C
Wind Press
QNH
hPa
Press
MSL
hPa
Rain since
9am
mm
Dir  Spd
km/h
Gust
km/h
Spd
kts
Gust
kts
16/11:30pm 17.4 14.7 11.7 69 3.1 SE 17 22 9 12 1019.7 1019.6 0.0
16/11:00pm 17.9 14.9 11.9 68 3.3 SE 19 28 10 15 1019.9 1019.8 0.0
16/10:30pm 18.3 15.8 12.3 68 3.3 SE 17 24 9 13 1020.0 1019.9 0.0
16/10:00pm 19.0 16.0 12.5 66 3.6 SE 20 30 11 16 1020.0 1019.9 0.0
16/09:30pm 20.0 17.2 12.7 63 4.1 SE 19 28 10 15 1019.8 1019.7 0.0
16/09:00pm 20.8 17.9 13.0 61 4.4 SE 20 32 11 17 1019.3 1019.2 0.0
16/08:30pm 21.5 18.3 13.2 59 4.8 SSE 22 35 12 19 1018.8 1018.7 0.0
16/08:00pm 22.7 18.8 13.2 55 5.5 SSE 26 43 14 23 1018.4 1018.3 0.0
16/07:30pm 24.1 21.4 13.6 52 6.1 SSE 20 30 11 16 1018.1 1018.0 0.0
16/07:00pm 25.3 22.8 14.1 50 6.6 SSE 20 35 11 19 1017.5 1017.4 0.0
16/06:30pm 26.7 23.2 14.5 47 7.3 SSE 26 41 14 22 1017.0 1016.9 0.0
16/06:00pm 27.3 24.9 15.3 48 7.3 S 22 33 12 18 1016.4 1016.3 0.0
16/05:30pm 28.2 24.9 15.1 44 8.0 SSW 26 43 14 23 1016.2 1016.1 0.0
16/05:00pm 29.5 27.4 15.2 41 8.7 SW 20 33 11 18 1016.1 1016.0 0.0
16/04:30pm 30.5 29.0 14.2 37 9.9 SSE 15 24 8 13 1016.1 1016.0 0.0
16/04:00pm 30.9 28.7 10.8 29 11.5 SSW 13 24 7 13 1016.5 1016.4 0.0
16/03:30pm 29.9 27.2 10.5 30 11.0 S 15 22 8 12 1016.7 1016.6 0.0
16/03:00pm 29.6 28.5 15.3 41 8.8 W 15 20 8 11 1016.8 1016.7 0.0
16/02:30pm 28.6 28.3 16.5 48 7.5 WSW 13 22 7 12 1017.2 1017.1 0.0
16/02:00pm 30.2 29.1 12.1 32 10.6 SSE 9 22 5 12 1017.6 1017.5 0.0
16/01:30pm 29.8 28.3 11.8 33 10.5 SSE 11 22 6 12 1018.0 1017.9 0.0
16/01:00pm 29.8 28.4 12.3 34 10.2 SSE 11 20 6 11 1018.3 1018.2 0.0
16/12:30pm 29.2 26.5 11.7 34 10.1 SSE 17 26 9 14 1018.8 1018.7 0.0
16/12:00pm 27.7 24.6 11.7 37 9.2 SSE 19 32 10 17 1019.2 1019.1 0.0
16/11:30am 26.4 23.4 12.1 41 8.2 SSE 19 30 10 16 1019.7 1019.6 0.0
16/11:00am 26.1 23.3 13.2 44 7.5 SSE 20 33 11 18 1020.3 1020.2 0.0
16/10:30am 24.9 22.8 13.5 49 6.7 SE 17 24 9 13 1020.6 1020.5 0.0
16/10:00am 24.7 22.7 13.9 51 6.3 SSE 17 22 9 12 1020.8 1020.7 0.0
16/09:30am 23.1 21.8 13.8 55 5.4 SE 13 20 7 11 1020.8 1020.7 0.0
16/09:00am 21.7 20.1 13.9 61 4.5 SSE 15 24 8 13 1021.0 1020.9 0.0
16/08:30am 20.5 18.4 13.7 65 3.9 SSE 17 26 9 14 1021.1 1021.0 0.0
16/08:00am 18.9 17.7 14.0 73 2.8 SSE 13 19 7 10 1021.1 1021.0 0.0
16/07:30am 17.8 17.3 13.9 78 2.2 SSE 9 15 5 8 1021.0 1020.9 0.0
16/07:00am 16.6 16.4 13.5 82 1.7 S 7 11 4 6 1020.8 1020.7 0.0
16/06:30am 15.2 14.8 13.1 87 1.2 S 7 11 4 6 1020.9 1020.8 0.0
16/06:00am 14.7 13.8 12.7 88 1.1 S 9 13 5 7 1020.5 1020.4 0.0
16/05:30am 14.4 13.8 12.4 88 1.1 S 7 11 4 6 1020.3 1020.2 0.0
16/05:00am 14.3 13.7 12.3 88 1.1 S 7 11 4 6 1020.0 1019.9 0.0
16/04:30am 14.3 13.7 12.2 87 1.1 SSW 7 11 4 6 1019.9 1019.8 0.0
16/04:00am 14.9 14.6 12.6 86 1.3 S 6 7 3 4 1019.4 1019.3 0.0
16/03:30am 15.1 14.2 12.6 85 1.4 S 9 13 5 7 1019.6 1019.5 0.0
16/03:00am 15.1 14.3 12.8 86 1.3 S 9 13 5 7 1019.4 1019.3 0.0
16/02:30am 15.2 14.3 12.7 85 1.4 S 9 11 5 6 1019.3 1019.2 0.0
16/02:00am 15.5 14.7 12.8 84 1.5 SSW 9 11 5 6 1019.6 1019.5 0.0
16/01:30am 15.9 15.1 13.0 83 1.6 S 9 11 5 6 1019.8 1019.7 0.0
16/01:00am 16.5 16.1 13.0 80 1.9 S 7 9 4 5 1019.7 1019.6 0.0
16/12:30am 17.2 16.5 13.3 78 2.2 SSE 9 13 5 7 1019.8 1019.7 0.0
16/12:00am 17.3 15.9 13.4 78 2.2 S 13 17 7 9 1020.0 1019.9 0.0
 
Date/Time
WST
Temp
°C
App
Temp
°C
Dew
Point
°C
Rel
Hum
%
Delta-T
°C
Wind Press
QNH
hPa
Press
MSL
hPa
Rain since
9am
mm
Dir  Spd
km/h
Gust
km/h
Spd
kts
Gust
kts
15/11:30pm 17.6 16.3 13.7 78 2.2 S 13 22 7 12 1019.7 1019.6 0.0
15/11:00pm 17.9 15.9 14.0 78 2.2 S 17 22 9 12 1019.7 1019.6 0.0
15/10:30pm 18.4 16.5 14.1 76 2.5 S 17 22 9 12 1019.8 1019.7 0.0
15/10:00pm 18.9 16.6 14.2 74 2.7 S 19 32 10 17 1019.8 1019.7 0.0
15/09:30pm 19.3 17.3 13.9 71 3.1 S 17 28 9 15 1019.7 1019.6 0.0
15/09:00pm 20.1 17.7 13.8 67 3.6 S 19 26 10 14 1019.3 1019.2 0.0
15/08:30pm 20.9 18.4 13.6 63 4.2 S 19 28 10 15 1018.8 1018.7 0.0
15/08:00pm 22.2 20.0 13.3 57 5.1 S 17 26 9 14 1018.3 1018.2 0.0
15/07:30pm 23.2 20.7 13.4 54 5.7 S 19 24 10 13 1017.6 1017.5 0.0
15/07:00pm 24.7 22.0 13.6 50 6.5 S 20 30 11 16 1017.0 1016.9 0.0
15/06:30pm 26.1 22.9 14.2 48 7.1 SSW 24 35 13 19 1016.5 1016.4 0.0
15/06:00pm 27.6 24.1 14.6 45 7.8 SSW 26 35 14 19 1016.1 1016.0 0.0
15/05:30pm 28.3 26.2 16.2 47 7.5 SW 22 37 12 20 1015.5 1015.4 0.0
15/05:00pm 27.7 25.4 16.6 50 6.9 SW 24 35 13 19 1015.4 1015.3 0.0
15/04:30pm 28.2 26.2 16.5 49 7.3 WSW 22 33 12 18 1015.2 1015.1 0.0
15/04:00pm 27.0 27.3 18.0 58 5.7 WNW 13 20 7 11 1015.4 1015.3 0.0
15/03:30pm 27.2 26.8 17.1 54 6.3 W 15 20 8 11 1015.6 1015.5 0.0
15/03:00pm 26.9 26.7 16.8 54 6.3 W 13 19 7 10 1015.7 1015.6 0.0
15/02:30pm 25.6 24.6 16.7 58 5.5 WNW 17 20 9 11 1016.1 1016.0 0.0
15/02:00pm 25.4 23.6 15.4 54 6.0 W 19 26 10 14 1016.3 1016.2 0.0
15/01:30pm 24.4 22.4 15.6 58 5.3 W 20 26 11 14 1016.5 1016.4 0.0
15/01:00pm 25.2 23.7 15.2 54 6.0 WNW 17 22 9 12 1016.4 1016.3 0.0
15/12:30pm 26.4 25.2 15.1 49 6.8 WNW 15 20 8 11 1016.5 1016.4 0.0
15/12:00pm 25.9 24.9 15.6 53 6.3 W 15 22 8 12 1016.6 1016.5 0.0
15/11:30am 25.7 25.0 15.4 53 6.2 W 13 17 7 9 1016.6 1016.5 0.0
15/11:00am 25.1 24.5 15.7 56 5.7 W 13 17 7 9 1016.8 1016.7 0.0
15/10:30am 24.7 23.9 15.1 55 5.8 WNW 13 17 7 9 1017.0 1016.9 0.0
15/10:00am 24.8 24.4 15.1 54 5.8 W 11 15 6 8 1016.9 1016.8 0.0
15/09:30am 25.5 26.3 14.9 52 6.4 NE 4 7 2 4 1016.9 1016.8 0.0
15/09:00am 25.4 25.4 14.2 50 6.6 E 7 15 4 8 1016.6 1016.5 -
15/08:30am 23.4 22.8 13.6 54 5.7 E 9 15 5 8 1016.5 1016.4 -
15/08:00am 21.5 21.4 13.9 62 4.4 ENE 7 11 4 6 1016.2 1016.1 -
15/07:30am 20.5 20.8 14.4 68 3.6 E 6 9 3 5 1016.4 1016.3 -
15/07:00am 18.4 18.9 14.1 76 2.5 ESE 4 7 2 4 1016.4 1016.3 -
15/06:30am 16.8 16.6 13.5 81 1.9 ESE 7 9 4 5 1016.1 1016.0 -
15/06:00am 15.7 15.8 12.8 83 1.6 SE 4 6 2 3 1015.9 1015.8 -
15/05:30am 16.8 16.7 13.3 80 2.0 S 6 7 3 4 1015.6 1015.5 -
15/05:00am 17.0 16.8 13.5 80 2.0 SSW 7 9 4 5 1015.4 1015.3 -
15/04:30am 17.3 17.3 13.6 79 2.1 SSW 6 6 3 3 1015.0 1014.9 -
15/04:00am 17.8 18.1 13.5 76 2.4 S 4 7 2 4 1014.5 1014.4 -
15/03:30am 18.8 18.8 14.1 74 2.7 S 7 9 4 5 1014.5 1014.4 -
15/03:00am 19.1 19.0 13.9 72 3.0 SSE 7 13 4 7 1014.3 1014.2 0.0
15/02:30am 17.7 18.0 14.4 81 1.9 S 6 7 3 4 1014.4 1014.3 -
15/02:00am 18.4 18.2 14.7 79 2.1 S 9 11 5 6 1014.5 1014.4 -
15/01:30am 18.9 19.1 14.8 77 2.4 SSW 7 9 4 5 1014.8 1014.7 -
15/01:00am 19.2 19.7 14.9 76 2.5 SSW 6 7 3 4 1014.8 1014.7 -
15/12:30am 20.2 20.1 15.0 72 3.1 SSE 9 13 5 7 1014.9 1014.8 -
15/12:00am 19.6 20.0 14.8 74 2.8 SSE 6 9 3 5 1015.0 1014.9 -
 
Date/Time
WST
Temp
°C
App
Temp
°C
Dew
Point
°C
Rel
Hum
%
Delta-T
°C
Wind Press
QNH
hPa
Press
MSL
hPa
Rain since
9am
mm
Dir  Spd
km/h
Gust
km/h
Spd
kts
Gust
kts
14/11:30pm 19.9 20.4 14.9 73 2.9 S 6 9 3 5 1015.0 1014.9 -
14/11:00pm 20.2 20.6 14.8 71 3.2 S 6 9 3 5 1015.0 1014.9 -
14/10:30pm 20.5 20.7 14.6 69 3.4 SSW 7 9 4 5 1014.7 1014.6 -
14/10:00pm 21.4 21.7 14.6 65 4.0 S 6 9 3 5 1014.8 1014.7 -
14/09:30pm 22.0 22.1 13.9 60 4.7 S 6 9 3 5 1014.6 1014.5 -
14/09:00pm 22.9 22.0 13.7 56 5.3 S 11 19 6 10 1014.2 1014.1 0.0
14/08:30pm 23.4 22.7 14.4 57 5.3 S 11 15 6 8 1013.7 1013.7 -
14/08:00pm 22.6 23.5 16.2 67 3.9 SSW 6 9 3 5 1013.1 1013.1 -
14/07:30pm 22.1 24.7 17.5 75 2.8 CALM 0 0 0 0 1012.7 1012.7 -
14/07:00pm 23.7 25.1 17.4 68 3.9 WSW 6 9 3 5 1012.4 1012.4 -
14/06:30pm 25.5 25.5 15.2 53 6.2 W 9 13 5 7 1012.2 1012.2 -
14/06:00pm 26.3 25.8 13.8 46 7.4 WSW 9 13 5 7 1012.4 1012.4 -
14/05:30pm 25.9 25.1 14.1 48 7.0 WSW 11 20 6 11 1012.4 1012.4 -
14/05:00pm 26.5 25.6 14.9 49 7.0 WNW 13 19 7 10 1012.1 1012.1 -
14/04:30pm 26.2 25.6 15.6 52 6.4 W 13 19 7 10 1012.3 1012.3 -
14/04:00pm 27.2 26.7 14.9 47 7.4 W 11 17 6 9 1012.1 1012.1 -
14/03:30pm 26.9 25.7 12.9 42 8.2 W 11 15 6 8 1012.2 1012.2 -
14/03:00pm 26.8 25.9 14.9 48 7.2 W 13 19 7 10 1012.3 1012.3 -
14/02:30pm 26.3 25.8 16.0 53 6.3 WNW 13 17 7 9 1012.5 1012.5 -
14/02:00pm 25.3 25.0 16.4 57 5.5 W 13 17 7 9 1012.8 1012.8 -
14/01:30pm 25.5 25.4 16.9 59 5.3 W 13 17 7 9 1013.1 1013.1 -
14/01:00pm 24.8 24.5 16.5 60 5.1 WNW 13 20 7 11 1013.1 1013.1 -
14/12:30pm 26.4 26.0 15.1 49 6.8 W 11 17 6 9 1013.2 1013.2 -
14/12:00pm 25.1 24.3 15.1 53 6.0 W 13 19 7 10 1013.6 1013.6 -
14/11:30am 25.3 24.6 15.3 54 6.0 W 13 17 7 9 1013.7 1013.7 -
14/11:00am 23.9 23.2 15.4 59 5.1 WNW 13 17 7 9 1014.0 1013.9 -
14/10:30am 24.6 23.3 14.7 54 5.9 WNW 15 17 8 9 1014.1 1014.0 -
14/09:30am 25.0 25.5 12.9 47 7.0 SSE 2 6 1 3 1014.2 1014.1 0.0
14/09:00am 23.3 23.3 12.3 50 6.3 S 4 7 2 4 1014.1 1014.0 0.0
14/08:30am 22.2 22.0 13.0 56 5.3 SE 6 9 3 5 1014.2 1014.1 0.0

Other Formats:

Comma delimited format used in spreadsheet applications
http://www.bom.gov.au/fwo/IDW60801/IDW60801.94604.axf

JavaScript Object Notation format (JSON) in row-major order
http://www.bom.gov.au/fwo/IDW60801/IDW60801.94604.json